createdAt,value
2022-10-17T00:03:01.031Z,41.63
2022-10-17T00:06:07.942Z,43.42
2022-10-17T00:09:09.887Z,42.03
2022-10-17T00:12:11.828Z,43.13
2022-10-17T00:15:18.278Z,42.63
2022-10-17T00:18:20.245Z,41.20
2022-10-17T00:21:22.544Z,39.92
2022-10-17T00:24:24.539Z,40.30
2022-10-17T00:27:26.676Z,30.25
2022-10-17T00:30:29.073Z,26.10
2022-10-17T00:33:32.500Z,27.42
2022-10-17T00:36:34.978Z,28.15
2022-10-17T00:39:37.505Z,27.02
2022-10-17T00:42:39.472Z,25.98
2022-10-17T00:45:41.406Z,25.48
2022-10-17T00:48:47.939Z,23.83
2022-10-17T00:51:52.780Z,23.47
2022-10-17T00:54:58.382Z,26.50
2022-10-17T00:58:01.931Z,26.30
2022-10-17T01:01:04.029Z,29.83
2022-10-17T01:04:06.162Z,29.55
2022-10-17T01:07:08.443Z,31.02
2022-10-17T01:10:10.954Z,26.65
2022-10-17T01:13:24.423Z,22.83
2022-10-17T01:16:38.628Z,22.08
2022-10-17T01:19:43.659Z,23.40
2022-10-17T01:23:08.652Z,22.92
2022-10-17T01:26:13.687Z,25.55
2022-10-17T01:29:21.609Z,26.13
2022-10-17T01:32:37.252Z,24.38
2022-10-17T01:36:09.005Z,26.47
2022-10-17T01:39:14.542Z,27.30
2022-10-17T01:42:17.805Z,27.70
2022-10-17T01:45:29.156Z,27.00
2022-10-17T01:48:36.855Z,27.08
2022-10-17T01:51:42.103Z,27.85
2022-10-17T01:54:49.596Z,24.38
2022-10-17T01:57:54.064Z,26.55
2022-10-17T02:01:00.017Z,26.45
2022-10-17T02:04:06.612Z,26.13
2022-10-17T02:07:09.820Z,29.27
2022-10-17T02:10:19.495Z,32.35
2022-10-17T02:13:35.824Z,31.00
2022-10-17T02:16:37.748Z,32.03
2022-10-17T02:19:45.496Z,31.33
2022-10-17T02:23:16.843Z,30.60
2022-10-17T02:26:27.654Z,30.08
2022-10-17T02:29:32.268Z,30.63
2022-10-17T02:32:46.607Z,31.80
2022-10-17T02:35:53.644Z,29.02
2022-10-17T02:38:56.964Z,24.97
2022-10-17T02:42:01.818Z,25.90
2022-10-17T02:45:04.978Z,24.85
2022-10-17T02:48:09.904Z,25.17
2022-10-17T02:51:14.368Z,26.42
2022-10-17T02:54:20.506Z,27.10
2022-10-17T02:57:28.605Z,27.80
2022-10-17T03:00:31.562Z,33.53
2022-10-17T03:03:33.792Z,52.65
2022-10-17T03:06:37.070Z,37.97
2022-10-17T03:09:39.026Z,33.10
2022-10-17T03:12:41.324Z,28.77
2022-10-17T03:15:44.316Z,28.00
2022-10-17T03:18:49.325Z,27.77
2022-10-17T03:21:52.341Z,24.60
2022-10-17T03:24:54.384Z,24.65
2022-10-17T03:27:58.257Z,25.02
2022-10-17T03:31:06.756Z,23.00
2022-10-17T03:34:08.832Z,24.95
2022-10-17T03:37:11.041Z,22.70
2022-10-17T03:40:14.592Z,22.10
2022-10-17T03:43:16.568Z,24.15
2022-10-17T03:49:25.675Z,22.70
2022-10-17T03:52:27.662Z,24.17
2022-10-17T03:55:30.435Z,23.50
2022-10-17T03:58:32.378Z,23.08
2022-10-17T04:01:35.859Z,22.52
2022-10-17T04:04:37.877Z,22.35
2022-10-17T04:07:40.451Z,23.42
2022-10-17T04:10:42.391Z,23.23
2022-10-17T04:13:44.820Z,24.58
2022-10-17T04:16:46.995Z,21.60
2022-10-17T04:19:53.255Z,22.47
2022-10-17T04:22:55.261Z,23.38
2022-10-17T04:25:57.835Z,23.55
2022-10-17T04:29:00.439Z,23.42
2022-10-17T04:32:02.465Z,24.40
2022-10-17T04:35:17.360Z,23.58
2022-10-17T04:38:27.691Z,22.45
2022-10-17T04:41:30.828Z,22.33
2022-10-17T04:44:34.025Z,23.10
2022-10-17T04:47:36.731Z,21.63
2022-10-17T04:50:38.756Z,21.57
2022-10-17T04:54:04.275Z,22.77
2022-10-17T04:57:06.342Z,22.38
2022-10-17T05:03:37.663Z,24.35
2022-10-17T05:06:39.958Z,23.65
2022-10-17T05:09:55.635Z,24.08
2022-10-17T05:12:58.505Z,23.87
2022-10-17T05:16:05.078Z,25.17
2022-10-17T05:19:07.112Z,24.52
2022-10-17T05:22:15.252Z,22.63
2022-10-17T05:25:17.352Z,24.35
2022-10-17T05:28:19.547Z,24.58
2022-10-17T05:31:22.485Z,24.98
2022-10-17T05:34:25.175Z,26.02
2022-10-17T05:37:29.123Z,26.33
2022-10-17T05:40:32.635Z,22.77
2022-10-17T05:43:41.987Z,24.10
2022-10-17T05:46:48.529Z,24.58
2022-10-17T05:49:52.687Z,23.85
2022-10-17T05:53:06.043Z,26.20
2022-10-17T05:56:14.826Z,24.38
2022-10-17T05:59:17.276Z,23.30
2022-10-17T06:02:26.546Z,22.63
2022-10-17T06:05:29.127Z,21.23
2022-10-17T06:08:31.993Z,20.85
2022-10-17T06:11:35.476Z,19.25
2022-10-17T06:14:37.971Z,20.70
2022-10-17T06:17:41.842Z,20.52
2022-10-17T06:20:46.047Z,19.92
2022-10-17T06:23:51.393Z,20.48
2022-10-17T06:27:13.103Z,20.80
2022-10-17T06:30:16.365Z,19.10
2022-10-17T06:33:21.614Z,19.23
2022-10-17T06:36:24.451Z,18.73
2022-10-17T06:39:33.891Z,19.95
2022-10-17T06:42:41.749Z,19.58
2022-10-17T06:45:59.236Z,21.25
2022-10-17T06:49:12.855Z,21.13
2022-10-17T06:52:34.255Z,19.65
2022-10-17T06:55:55.804Z,17.88
2022-10-17T06:59:18.351Z,18.10
2022-10-17T07:02:28.057Z,18.60
2022-10-17T07:05:32.357Z,17.88
2022-10-17T07:08:34.307Z,17.13
2022-10-17T07:11:37.970Z,15.32
2022-10-17T07:14:40.117Z,14.97
2022-10-17T07:17:42.150Z,16.25
2022-10-17T07:20:44.530Z,14.55
2022-10-17T07:23:50.482Z,14.35
2022-10-17T07:26:56.402Z,14.82
2022-10-17T07:29:59.046Z,14.03
2022-10-17T07:33:11.020Z,14.93
2022-10-17T07:36:13.429Z,13.90
2022-10-17T07:39:15.669Z,13.90
2022-10-17T07:42:17.933Z,14.18
2022-10-17T07:45:20.037Z,12.13
2022-10-17T07:48:23.506Z,10.68
2022-10-17T07:51:25.928Z,12.43
2022-10-17T07:54:28.128Z,13.82
2022-10-17T07:57:30.206Z,10.93
2022-10-17T08:00:32.386Z,11.83
2022-10-17T08:03:34.658Z,10.85
2022-10-17T08:06:36.914Z,11.10
2022-10-17T08:09:39.021Z,10.80
2022-10-17T08:12:41.295Z,11.63
2022-10-17T08:15:43.334Z,10.00
2022-10-17T08:18:45.388Z,10.43
2022-10-17T08:21:47.377Z,9.52
2022-10-17T08:24:49.381Z,11.48
2022-10-17T08:27:51.471Z,10.88
2022-10-17T08:30:53.494Z,10.77
2022-10-17T08:33:55.609Z,10.02
2022-10-17T08:36:57.678Z,10.50
2022-10-17T08:39:59.860Z,9.90
2022-10-17T08:43:22.938Z,9.13
2022-10-17T08:46:30.222Z,9.60
2022-10-17T08:49:47.101Z,9.18
2022-10-17T08:52:51.899Z,9.85
2022-10-17T08:55:54.750Z,8.88
2022-10-17T08:58:56.851Z,8.70
2022-10-17T09:02:03.158Z,7.37
2022-10-17T09:05:26.511Z,9.25
2022-10-17T09:08:37.894Z,8.18
2022-10-17T09:11:41.910Z,7.95
2022-10-17T09:15:00.652Z,7.70
2022-10-17T09:18:07.876Z,6.80
2022-10-17T09:21:28.053Z,7.82
2022-10-17T09:24:30.221Z,6.80
2022-10-17T09:27:34.464Z,7.05
2022-10-17T09:30:45.021Z,7.65
2022-10-17T09:37:19.517Z,6.57
2022-10-17T09:40:24.317Z,6.80
2022-10-17T09:43:26.766Z,7.30
2022-10-17T09:46:37.528Z,6.68
2022-10-17T09:49:41.059Z,6.30
2022-10-17T09:52:47.736Z,6.80
2022-10-17T09:55:52.516Z,6.75
2022-10-17T09:58:57.252Z,6.55
2022-10-17T10:02:08.386Z,7.35
2022-10-17T10:05:19.256Z,6.17
2022-10-17T10:08:21.565Z,7.25
2022-10-17T10:11:25.696Z,7.05
2022-10-17T10:14:37.589Z,6.55
2022-10-17T10:17:44.034Z,6.68
2022-10-17T10:20:46.924Z,6.37
2022-10-17T10:24:04.309Z,5.50
2022-10-17T10:27:11.089Z,5.57
2022-10-17T10:30:21.538Z,5.32
2022-10-17T10:33:25.404Z,6.13
2022-10-17T10:36:42.194Z,5.80
2022-10-17T10:39:55.082Z,5.20
2022-10-17T10:43:04.063Z,4.38
2022-10-17T10:46:18.333Z,4.43
2022-10-17T10:49:31.024Z,5.45
2022-10-17T10:52:39.123Z,4.83
2022-10-17T10:56:01.383Z,5.22
2022-10-17T10:59:09.006Z,5.15
2022-10-17T11:02:14.748Z,5.15
2022-10-17T11:05:27.742Z,5.28
2022-10-17T11:08:48.354Z,5.10
2022-10-17T11:11:55.688Z,4.03
2022-10-17T11:15:02.834Z,4.18
2022-10-17T11:18:10.865Z,4.75
2022-10-17T11:21:31.442Z,4.90
2022-10-17T11:24:57.103Z,4.53
2022-10-17T11:28:03.822Z,4.70
2022-10-17T11:31:09.193Z,4.25
2022-10-17T11:34:20.332Z,4.85
2022-10-17T11:37:24.208Z,4.85
2022-10-17T11:40:30.855Z,4.37
2022-10-17T11:43:42.493Z,4.85
2022-10-17T11:46:46.250Z,4.93
2022-10-17T11:49:53.542Z,4.53
2022-10-17T11:52:59.109Z,4.78
2022-10-17T11:56:02.073Z,5.03
2022-10-17T11:59:22.758Z,4.32
2022-10-17T12:02:43.301Z,5.95
2022-10-17T12:05:45.550Z,4.78
2022-10-17T12:08:53.766Z,4.90
2022-10-17T12:12:00.111Z,4.63
2022-10-17T12:15:14.203Z,4.75
2022-10-17T12:18:17.206Z,4.90
2022-10-17T12:21:19.252Z,4.85
2022-10-17T12:24:32.937Z,5.07
2022-10-17T12:27:35.056Z,4.73
2022-10-17T12:30:49.138Z,4.63
2022-10-17T12:33:52.738Z,5.35
2022-10-17T12:36:54.723Z,4.75
2022-10-17T12:39:56.650Z,4.35
2022-10-17T12:42:58.609Z,5.13
2022-10-17T12:46:05.237Z,5.38
2022-10-17T12:49:22.230Z,4.43
2022-10-17T12:52:25.995Z,5.50
2022-10-17T12:55:29.039Z,4.63
2022-10-17T12:58:31.182Z,5.90
2022-10-17T13:01:34.023Z,4.80
2022-10-17T13:04:36.467Z,4.95
2022-10-17T13:07:41.211Z,4.90
2022-10-17T13:10:47.053Z,4.18
2022-10-17T13:13:52.170Z,4.13
2022-10-17T13:16:55.840Z,4.38
2022-10-17T13:19:58.439Z,4.97
2022-10-17T13:23:00.854Z,4.50
2022-10-17T13:26:15.559Z,4.47
2022-10-17T13:29:18.171Z,4.67
2022-10-17T13:32:20.307Z,4.70
2022-10-17T13:38:55.130Z,4.43
2022-10-17T13:41:58.067Z,5.10
2022-10-17T13:45:00.296Z,4.83
2022-10-17T13:48:04.049Z,6.05
2022-10-17T13:51:10.304Z,6.18
2022-10-17T13:54:28.279Z,5.50
2022-10-17T13:57:31.783Z,5.10
2022-10-17T14:00:34.372Z,5.73
2022-10-17T14:03:48.212Z,5.50
2022-10-17T14:06:52.211Z,4.75
2022-10-17T14:09:54.648Z,4.90
2022-10-17T14:12:56.948Z,5.22
2022-10-17T14:16:00.176Z,5.20
2022-10-17T14:19:02.617Z,5.20
2022-10-17T14:22:22.932Z,5.25
2022-10-17T14:25:37.722Z,5.72
2022-10-17T14:28:40.561Z,6.13
2022-10-17T14:31:42.760Z,7.07
2022-10-17T14:34:46.602Z,6.78
2022-10-17T14:37:50.622Z,6.53
2022-10-17T14:41:00.378Z,6.13
2022-10-17T14:44:18.094Z,5.53
2022-10-17T14:51:06.983Z,6.32
2022-10-17T14:54:18.598Z,6.28
2022-10-17T14:57:28.122Z,6.60
2022-10-17T15:00:30.172Z,8.25
2022-10-17T15:03:32.171Z,11.57
2022-10-17T15:06:34.354Z,12.38
2022-10-17T15:09:36.284Z,13.85
2022-10-17T15:12:38.261Z,9.38
2022-10-17T15:15:40.573Z,9.60
2022-10-17T15:18:42.553Z,10.90
2022-10-17T15:21:47.192Z,14.80
2022-10-17T15:24:49.796Z,15.00
2022-10-17T15:27:52.475Z,12.90
2022-10-17T15:30:54.469Z,13.82
2022-10-17T15:33:56.422Z,13.60
2022-10-17T15:36:58.855Z,18.10
2022-10-17T15:40:00.955Z,19.48
2022-10-17T15:43:02.950Z,18.33
2022-10-17T15:46:09.658Z,19.42
2022-10-17T15:49:13.451Z,20.20
2022-10-17T15:52:15.430Z,14.68
2022-10-17T15:55:18.178Z,21.15
2022-10-17T15:58:20.291Z,24.40
2022-10-17T16:01:23.823Z,38.35
2022-10-17T16:04:27.537Z,32.30
2022-10-17T16:07:29.683Z,40.75
2022-10-17T16:10:32.008Z,39.70
2022-10-17T16:13:33.968Z,39.35
2022-10-17T16:16:35.920Z,40.33
2022-10-17T16:19:37.820Z,43.67
2022-10-17T16:22:42.097Z,47.00
2022-10-17T16:25:44.134Z,53.63
2022-10-17T16:28:46.535Z,56.20
2022-10-17T16:31:48.553Z,71.45
2022-10-17T16:34:50.483Z,89.70
2022-10-17T16:37:52.791Z,87.90
2022-10-17T16:40:54.797Z,90.68
2022-10-17T16:43:58.580Z,85.30
2022-10-17T16:47:00.607Z,77.85
2022-10-17T16:50:02.656Z,76.30
2022-10-17T16:53:04.697Z,78.97
2022-10-17T16:56:07.427Z,78.68
2022-10-17T16:59:10.627Z,81.03
2022-10-17T17:02:13.696Z,84.50
2022-10-17T17:05:17.365Z,82.97
2022-10-17T17:08:19.361Z,80.82
2022-10-17T17:11:22.168Z,81.20
2022-10-17T17:14:24.127Z,73.53
2022-10-17T17:17:44.283Z,79.50
2022-10-17T17:20:48.073Z,81.37
2022-10-17T17:23:50.493Z,91.15
2022-10-17T17:26:53.998Z,83.55
2022-10-17T17:29:56.034Z,83.65
2022-10-17T17:32:59.989Z,81.50
2022-10-17T17:36:02.078Z,78.50
2022-10-17T17:39:06.261Z,83.20
2022-10-17T17:42:08.226Z,91.28
2022-10-17T17:45:10.328Z,88.63
2022-10-17T17:48:12.507Z,86.88
2022-10-17T17:51:15.500Z,94.00
2022-10-17T17:54:17.466Z,96.20
2022-10-17T17:57:19.428Z,95.13
2022-10-17T18:00:21.453Z,96.05
2022-10-17T18:03:23.602Z,96.10
2022-10-17T18:06:26.148Z,103.13
2022-10-17T18:09:28.109Z,98.47
2022-10-17T18:12:30.796Z,89.97
2022-10-17T18:15:32.962Z,91.10
2022-10-17T18:18:36.125Z,97.27
2022-10-17T18:21:38.137Z,96.97
2022-10-17T18:24:40.118Z,90.38
2022-10-17T18:27:42.403Z,79.07
2022-10-17T18:30:44.319Z,66.05
2022-10-17T18:33:46.349Z,61.23
2022-10-17T18:36:48.412Z,61.25
2022-10-17T18:39:52.695Z,63.45
2022-10-17T18:42:54.657Z,79.47
2022-10-17T18:45:57.225Z,69.27
2022-10-17T18:48:59.239Z,63.22
2022-10-17T18:52:01.178Z,55.65
2022-10-17T18:55:03.219Z,55.87
2022-10-17T18:58:05.204Z,54.30
2022-10-17T19:01:11.614Z,55.83
2022-10-17T19:04:13.891Z,55.63
2022-10-17T19:07:17.172Z,56.93
2022-10-17T19:10:19.158Z,57.63
2022-10-17T19:13:21.729Z,56.55
2022-10-17T19:16:28.255Z,57.63
2022-10-17T19:19:30.781Z,60.20
2022-10-17T19:22:33.187Z,55.60
2022-10-17T19:25:35.183Z,56.40
2022-10-17T19:28:38.080Z,56.25
2022-10-17T19:31:40.255Z,60.88
2022-10-17T19:34:42.309Z,63.43
2022-10-17T19:37:44.304Z,52.60
2022-10-17T19:40:46.365Z,48.97
2022-10-17T19:43:48.837Z,47.10
2022-10-17T19:46:50.795Z,50.45
2022-10-17T19:49:52.853Z,43.33
2022-10-17T19:52:54.853Z,40.45
2022-10-17T19:55:57.438Z,40.22
2022-10-17T19:58:59.484Z,40.30
2022-10-17T20:02:01.503Z,37.78
2022-10-17T20:05:17.979Z,36.40
2022-10-17T20:08:21.018Z,37.00
2022-10-17T20:11:24.340Z,44.40
2022-10-17T20:14:26.292Z,34.88
2022-10-17T20:17:28.287Z,31.73
2022-10-17T20:20:30.388Z,40.73
2022-10-17T20:23:32.439Z,43.03
2022-10-17T20:26:38.964Z,46.08
2022-10-17T20:29:41.537Z,45.97
2022-10-17T20:32:43.461Z,45.87
2022-10-17T20:38:53.297Z,47.30
2022-10-17T20:41:55.299Z,31.00
2022-10-17T20:44:57.595Z,30.67
2022-10-17T20:47:59.497Z,32.40
2022-10-17T20:51:06.751Z,29.92
2022-10-17T20:54:08.992Z,31.30
2022-10-17T20:57:10.928Z,33.50
2022-10-17T21:00:13.187Z,36.63
2022-10-17T21:03:15.131Z,35.63
2022-10-17T21:06:17.844Z,43.78
2022-10-17T21:09:19.826Z,54.93
2022-10-17T21:12:31.193Z,57.47
2022-10-17T21:15:38.844Z,62.05
2022-10-17T21:18:40.925Z,60.38
2022-10-17T21:21:44.122Z,60.77
2022-10-17T21:24:46.095Z,62.72
2022-10-17T21:27:48.014Z,61.90
2022-10-17T21:30:49.984Z,55.30
2022-10-17T21:33:52.908Z,62.67
2022-10-17T21:36:54.875Z,59.40
2022-10-17T21:39:56.989Z,58.90
2022-10-17T21:42:58.946Z,63.70
2022-10-17T21:46:01.942Z,66.93
2022-10-17T21:49:03.920Z,63.47
2022-10-17T21:52:07.267Z,55.88
2022-10-17T21:55:09.361Z,48.37
2022-10-17T21:58:11.376Z,45.90
2022-10-17T22:01:23.595Z,57.53
2022-10-17T22:04:25.679Z,47.57
2022-10-17T22:07:27.661Z,53.55
2022-10-17T22:10:29.592Z,48.53
2022-10-17T22:13:31.533Z,45.00
2022-10-17T22:16:34.143Z,45.55
2022-10-17T22:19:36.085Z,43.63
2022-10-17T22:22:38.033Z,44.67
2022-10-17T22:25:40.009Z,34.83
2022-10-17T22:28:42.153Z,36.20
2022-10-17T22:31:44.305Z,37.47
2022-10-17T22:34:47.927Z,37.13
2022-10-17T22:37:50.317Z,34.08
2022-10-17T22:40:52.261Z,33.53
2022-10-17T22:43:54.192Z,34.92
2022-10-17T22:46:56.124Z,32.85
2022-10-17T22:49:58.063Z,31.20
2022-10-17T22:53:00.254Z,30.98
2022-10-17T22:56:03.791Z,31.60
2022-10-17T22:59:05.808Z,27.77
2022-10-17T23:02:07.768Z,27.33
2022-10-17T23:05:09.767Z,28.33
2022-10-17T23:08:12.452Z,27.25
2022-10-17T23:11:14.750Z,26.88
2022-10-17T23:14:16.795Z,25.95
2022-10-17T23:17:18.702Z,24.27
2022-10-17T23:20:20.671Z,22.60
2022-10-17T23:23:22.616Z,23.38
2022-10-17T23:26:24.552Z,25.67
2022-10-17T23:29:26.525Z,23.03
2022-10-17T23:32:28.739Z,22.92
2022-10-17T23:35:30.845Z,22.58
2022-10-17T23:38:32.824Z,24.37
2022-10-17T23:41:34.782Z,23.30
2022-10-17T23:44:36.759Z,24.00
2022-10-17T23:47:38.992Z,23.98
2022-10-17T23:50:40.964Z,21.98
2022-10-17T23:53:42.978Z,23.08
2022-10-17T23:56:44.981Z,23.73
2022-10-17T23:59:46.975Z,23.43
